Time;durP1;ratioP1;P1;durP2;ratioP2;P2;SDS_P1;SDS_P2;PMS_P1;PMS_P2;Temp;Humidity;BMP_temperature;BMP_pressure;BME280_temperature;BME280_humidity;BME280_pressure;Samples;Min_cycle;Max_cycle;Signal;HPM_P1;HPM_P2
2021/10/20 00:02:12;;;;;;;;;9.25;8.25;;;;;-142.59;100.00;56100.38;5051172;28;72167;-70
2021/10/20 00:04:38;;;;;;;;;10.50;9.25;;;;;-142.59;100.00;56100.38;5052094;28;49701;-70
2021/10/20 00:07:03;;;;;;;;;8.00;8.00;;;;;-142.59;100.00;56100.38;5033413;28;66452;-69
2021/10/20 00:09:29;;;;;;;;;8.50;8.00;;;;;-142.59;100.00;56100.38;5051561;28;63992;-69
2021/10/20 00:11:54;;;;;;;;;10.25;9.50;;;;;-142.59;100.00;56100.38;5033307;28;63800;-69
2021/10/20 00:14:19;;;;;;;;;10.50;10.25;;;;;-142.59;100.00;56100.38;5051379;28;66770;-68
2021/10/20 00:16:45;;;;;;;;;9.75;9.00;;;;;-142.59;100.00;56100.38;5034141;28;50464;-69
2021/10/20 00:19:10;;;;;;;;;10.00;8.75;;;;;-142.59;100.00;56100.38;5050989;28;58666;-69
2021/10/20 00:21:35;;;;;;;;;8.75;8.75;;;;;-142.59;100.00;56100.38;5051132;28;66396;-69
2021/10/20 00:24:01;;;;;;;;;11.00;10.00;;;;;-142.59;100.00;56100.38;5033392;28;49582;-69
2021/10/20 00:26:26;;;;;;;;;10.75;10.75;;;;;-142.59;100.00;56100.38;5052126;28;49737;-69
2021/10/20 00:28:52;;;;;;;;;10.50;10.00;;;;;-142.59;100.00;56100.38;5034289;28;50110;-69
2021/10/20 00:31:17;;;;;;;;;8.00;7.25;;;;;-142.59;100.00;56100.38;5051674;28;50249;-69
2021/10/20 00:33:43;;;;;;;;;11.75;9.75;;;;;-142.59;100.00;56100.38;5050813;28;71478;-69
2021/10/20 00:36:08;;;;;;;;;10.75;9.75;;;;;-142.59;100.00;56100.38;5033487;28;52011;-71
2021/10/20 00:38:34;;;;;;;;;10.50;9.00;;;;;-142.59;100.00;56100.38;5017234;28;49788;-69
2021/10/20 00:40:59;;;;;;;;;13.75;10.50;;;;;-142.59;100.00;56100.38;5032857;28;65379;-73
2021/10/20 00:43:24;;;;;;;;;10.50;10.00;;;;;-142.59;100.00;56100.38;5033399;28;49780;-74
2021/10/20 00:45:50;;;;;;;;;11.00;11.00;;;;;-142.59;100.00;56100.38;5017206;28;49865;-72
2021/10/20 00:48:15;;;;;;;;;8.25;8.00;;;;;-142.59;100.00;56100.38;5051602;28;49709;-75
2021/10/20 00:50:41;;;;;;;;;15.75;12.25;;;;;-142.59;100.00;56100.38;5050455;28;74666;-77
2021/10/20 00:53:06;;;;;;;;;11.50;9.25;;;;;-142.59;100.00;56100.38;5033140;28;58405;-76
2021/10/20 00:55:32;;;;;;;;;10.75;10.75;;;;;-142.59;100.00;56100.38;5050835;28;65284;-72
2021/10/20 00:57:57;;;;;;;;;9.00;9.00;;;;;-142.59;100.00;56100.38;5033134;28;50040;-75
2021/10/20 01:00:22;;;;;;;;;9.00;8.50;;;;;-142.59;100.00;56100.38;5033332;28;49825;-70
2021/10/20 01:02:48;;;;;;;;;10.50;10.50;;;;;-142.59;100.00;56100.38;5032624;28;68519;-78
2021/10/20 01:05:13;;;;;;;;;14.25;10.25;;;;;-142.59;100.00;56100.38;5050646;28;59923;-71
2021/10/20 01:07:39;;;;;;;;;11.25;11.25;;;;;-142.59;100.00;56100.38;5033543;28;49850;-68
2021/10/20 01:10:08;;;;;;;;;9.50;9.50;;;;;-142.59;100.00;56100.38;5051123;28;49828;-68
2021/10/20 01:12:34;;;;;;;;;12.25;9.75;;;;;-142.59;100.00;56100.38;5016739;28;49762;-70
2021/10/20 01:15:00;;;;;;;;;13.75;13.00;;;;;-142.59;100.00;56100.38;5033225;28;49801;-75
2021/10/20 01:17:25;;;;;;;;;12.00;12.00;;;;;-142.59;100.00;56100.38;5016582;28;49804;-71
2021/10/20 01:19:51;;;;;;;;;9.50;9.25;;;;;-142.59;100.00;56100.38;5050818;28;50251;-69
2021/10/20 01:22:16;;;;;;;;;9.00;8.50;;;;;-142.59;100.00;56100.38;5033248;28;49777;-72
2021/10/20 01:24:42;;;;;;;;;8.00;8.00;;;;;-142.59;100.00;56100.38;5016669;28;49766;-69
2021/10/20 01:27:07;;;;;;;;;12.50;11.25;;;;;-142.59;100.00;56100.38;5016722;28;49631;-70
2021/10/20 01:29:32;;;;;;;;;11.00;9.00;;;;;-142.59;100.00;56100.38;5050784;28;50344;-70
2021/10/20 01:31:59;;;;;;;;;10.25;10.25;;;;;-142.59;100.00;56100.38;5050446;28;66496;-74
2021/10/20 01:34:24;;;;;;;;;9.00;9.00;;;;;-142.59;100.00;56100.38;5051012;28;49609;-71
2021/10/20 01:36:50;;;;;;;;;11.75;10.00;;;;;-142.59;100.00;56100.38;5050365;28;49790;-71
2021/10/20 01:39:16;;;;;;;;;11.75;10.25;;;;;-142.59;100.00;56100.38;5050801;28;49776;-69
2021/10/20 01:41:41;;;;;;;;;11.25;11.25;;;;;-142.59;100.00;56100.38;5016158;28;49669;-69
2021/10/20 01:44:07;;;;;;;;;9.25;9.25;;;;;-142.59;100.00;56100.38;5032927;28;49972;-70
2021/10/20 01:46:32;;;;;;;;;8.00;8.00;;;;;-142.59;100.00;56100.38;5051106;28;49714;-69
2021/10/20 01:48:58;;;;;;;;;9.75;9.75;;;;;-142.59;100.00;56100.38;5032221;28;51367;-71
2021/10/20 01:51:23;;;;;;;;;17.75;13.25;;;;;-142.59;100.00;56100.38;5049794;28;70595;-70
2021/10/20 01:53:48;;;;;;;;;12.50;12.00;;;;;-142.59;100.00;56100.38;5049924;28;67488;-71
2021/10/20 01:56:14;;;;;;;;;13.25;11.25;;;;;-142.59;100.00;56100.38;5016353;28;49943;-70
2021/10/20 01:58:40;;;;;;;;;15.75;15.00;;;;;-142.59;100.00;56100.38;5016093;28;49855;-69
2021/10/20 02:01:07;;;;;;;;;10.75;10.75;;;;;-142.59;100.00;56100.38;5050380;28;49790;-68
2021/10/20 02:03:34;;;;;;;;;11.00;11.00;;;;;-142.59;100.00;56100.38;5050477;28;49713;-68
2021/10/20 02:05:59;;;;;;;;;12.75;11.75;;;;;-142.59;100.00;56100.38;5050736;28;49601;-69
2021/10/20 02:08:24;;;;;;;;;11.25;11.25;;;;;-142.59;100.00;56100.38;5049350;28;74071;-69
2021/10/20 02:10:50;;;;;;;;;11.75;10.50;;;;;-142.59;100.00;56100.38;5031696;28;69781;-69
2021/10/20 02:13:15;;;;;;;;;13.75;12.25;;;;;-142.59;100.00;56100.38;5050195;28;57697;-68
2021/10/20 02:15:41;;;;;;;;;11.50;11.50;;;;;-142.59;100.00;56100.38;5050062;28;61634;-69
2021/10/20 02:18:06;;;;;;;;;12.50;11.75;;;;;-142.59;100.00;56100.38;5049925;28;50545;-69
2021/10/20 02:20:32;;;;;;;;;12.50;12.50;;;;;-142.59;100.00;56100.38;5050506;28;49617;-68
2021/10/20 02:22:57;;;;;;;;;14.25;13.50;;;;;-142.59;100.00;56100.38;5050509;28;49713;-68
2021/10/20 02:25:23;;;;;;;;;13.50;12.00;;;;;-142.59;100.00;56100.38;5049335;28;64965;-69
2021/10/20 02:27:49;;;;;;;;;11.00;10.00;;;;;-142.59;100.00;56100.38;5050103;28;51210;-69
2021/10/20 02:30:14;;;;;;;;;11.00;11.00;;;;;-142.59;100.00;56100.38;5050290;28;49746;-69
2021/10/20 02:32:40;;;;;;;;;12.25;12.25;;;;;-142.59;100.00;56100.38;5032086;28;49808;-69
2021/10/20 02:35:06;;;;;;;;;16.75;16.00;;;;;-142.59;100.00;56100.38;5032437;28;50190;-68
2021/10/20 02:37:31;;;;;;;;;12.75;12.00;;;;;-142.59;100.00;56100.38;5032304;28;50436;-69
2021/10/20 02:40:00;;;;;;;;;14.00;12.75;;;;;-142.59;100.00;56100.38;5049313;28;64055;-69
2021/10/20 02:42:25;;;;;;;;;14.00;11.25;;;;;-142.59;100.00;56100.38;5050084;28;49785;-68
2021/10/20 02:44:51;;;;;;;;;11.00;11.00;;;;;-142.59;100.00;56100.38;5015513;28;49869;-70
2021/10/20 02:47:16;;;;;;;;;11.00;11.00;;;;;-142.59;100.00;56100.38;5051862;28;51107;-77
2021/10/20 02:49:41;;;;;;;;;11.25;10.75;;;;;-142.59;100.00;56100.38;5052957;28;52701;-72
2021/10/20 02:52:07;;;;;;;;;14.25;14.25;;;;;-142.59;100.00;56100.38;5052930;28;63323;-76
2021/10/20 02:54:35;;;;;;;;;11.25;10.75;;;;;-142.59;100.00;56100.38;5053763;28;50114;-72
2021/10/20 02:57:02;;;;;;;;;10.25;10.25;;;;;-142.59;100.00;56100.38;5053246;28;50923;-73
2021/10/20 02:59:27;;;;;;;;;10.50;10.50;;;;;-142.59;100.00;56100.38;5053479;28;50050;-76
2021/10/20 03:01:52;;;;;;;;;12.00;9.25;;;;;-142.59;100.00;56100.38;5052386;28;69815;-72
2021/10/20 03:04:18;;;;;;;;;11.00;11.00;;;;;-142.59;100.00;56100.38;5034450;28;63794;-77
2021/10/20 03:06:43;;;;;;;;;18.50;15.75;;;;;-142.59;100.00;56100.38;5034282;28;76631;-69
2021/10/20 03:09:08;;;;;;;;;15.25;13.75;;;;;-142.59;100.00;56100.38;5034424;28;67507;-69
2021/10/20 03:11:34;;;;;;;;;13.25;11.75;;;;;-142.59;100.00;56100.38;5053220;28;50366;-73
2021/10/20 03:13:59;;;;;;;;;12.50;11.75;;;;;-142.59;100.00;56100.38;5053012;28;49742;-75
2021/10/20 03:16:25;;;;;;;;;14.50;14.50;;;;;-142.59;100.00;56100.38;5052889;28;50507;-72
2021/10/20 03:18:50;;;;;;;;;12.75;12.75;;;;;-142.59;100.00;56100.38;5034542;28;59073;-73
2021/10/20 03:21:15;;;;;;;;;14.50;13.25;;;;;-142.59;100.00;56100.38;5035091;28;49683;-74
2021/10/20 03:23:41;;;;;;;;;13.50;11.25;;;;;-142.59;100.00;56100.38;5052897;28;49592;-73
2021/10/20 03:26:06;;;;;;;;;18.00;14.50;;;;;-142.59;100.00;56100.38;5034143;28;68005;-75
2021/10/20 03:28:31;;;;;;;;;13.25;12.75;;;;;-142.59;100.00;56100.38;5052309;28;70033;-75
2021/10/20 03:30:57;;;;;;;;;11.75;11.50;;;;;-142.59;100.00;56100.38;5052910;28;49533;-75
2021/10/20 03:33:22;;;;;;;;;16.50;13.75;;;;;-142.59;100.00;56100.38;5052330;28;59863;-74
2021/10/20 03:35:48;;;;;;;;;13.75;12.00;;;;;-142.59;100.00;56100.38;5051802;28;73996;-76
2021/10/20 03:38:13;;;;;;;;;19.00;15.75;;;;;-142.59;100.00;56100.38;5033929;28;68860;-75
2021/10/20 03:40:39;;;;;;;;;16.50;15.50;;;;;-142.59;100.00;56100.38;5052833;28;49769;-79
2021/10/20 03:43:04;;;;;;;;;13.50;13.00;;;;;-142.59;100.00;56100.38;5053014;28;49839;-75
2021/10/20 03:45:30;;;;;;;;;18.75;14.25;;;;;-142.59;100.00;56100.38;5018102;28;50374;-77
2021/10/20 03:47:55;;;;;;;;;13.00;11.75;;;;;-142.59;100.00;56100.38;5052402;28;49668;-77
2021/10/20 03:50:21;;;;;;;;;21.00;17.00;;;;;-142.59;100.00;56100.38;5051885;28;64376;-75
2021/10/20 03:52:46;;;;;;;;;14.00;12.75;;;;;-142.59;100.00;56100.38;5034772;28;49773;-72
2021/10/20 03:55:12;;;;;;;;;12.00;11.00;;;;;-142.59;100.00;56100.38;5051679;28;70205;-73
2021/10/20 03:57:38;;;;;;;;;14.00;14.00;;;;;-142.59;100.00;56100.38;5052492;28;49764;-77
2021/10/20 04:00:06;;;;;;;;;13.25;13.25;;;;;-142.59;100.00;56100.38;5052050;28;49785;-76
2021/10/20 04:02:31;;;;;;;;;12.00;12.00;;;;;-142.59;100.00;56100.38;5034711;28;50002;-78
2021/10/20 04:04:57;;;;;;;;;12.00;11.25;;;;;-142.59;100.00;56100.38;5033652;28;61538;-76
2021/10/20 04:07:22;;;;;;;;;14.50;12.00;;;;;-142.59;100.00;56100.38;5033281;28;72283;-73
2021/10/20 04:09:48;;;;;;;;;13.00;11.50;;;;;-142.59;100.00;56100.38;5034313;28;49687;-77
2021/10/20 04:12:13;;;;;;;;;13.50;13.50;;;;;-142.59;100.00;56100.38;5052881;28;50011;-74
2021/10/20 04:14:38;;;;;;;;;15.25;15.25;;;;;-142.59;100.00;56100.38;5051972;28;50326;-77
2021/10/20 04:17:04;;;;;;;;;16.25;15.25;;;;;-142.59;100.00;56100.38;5050981;28;71423;-77
2021/10/20 04:19:29;;;;;;;;;14.00;14.00;;;;;-142.59;100.00;56100.38;5051191;28;69126;-75
2021/10/20 04:21:55;;;;;;;;;11.75;11.75;;;;;-142.59;100.00;56100.38;5051986;28;50025;-74
2021/10/20 04:24:20;;;;;;;;;15.50;13.50;;;;;-142.59;100.00;56100.38;5034117;28;51040;-78
2021/10/20 04:26:45;;;;;;;;;14.25;12.25;;;;;-142.59;100.00;56100.38;5051237;28;68858;-74
2021/10/20 04:29:11;;;;;;;;;13.00;12.75;;;;;-142.59;100.00;56100.38;5033921;28;49716;-74
2021/10/20 04:31:36;;;;;;;;;16.75;14.75;;;;;-142.59;100.00;56100.38;5051808;28;49849;-74
2021/10/20 04:34:02;;;;;;;;;11.25;11.00;;;;;-142.59;100.00;56100.38;5051029;28;63393;-72
2021/10/20 04:36:27;;;;;;;;;12.75;12.25;;;;;-142.59;100.00;56100.38;5051746;28;49836;-78
2021/10/20 04:38:52;;;;;;;;;14.50;11.25;;;;;-142.59;100.00;56100.38;5051956;28;50130;-70
2021/10/20 04:41:18;;;;;;;;;11.00;11.00;;;;;-142.59;100.00;56100.38;5034063;28;49709;-75
2021/10/20 04:43:43;;;;;;;;;18.50;15.00;;;;;-142.59;100.00;56100.38;5051612;28;53643;-77
2021/10/20 04:46:09;;;;;;;;;16.25;14.75;;;;;-142.59;100.00;56100.38;5033688;28;49667;-76
2021/10/20 04:48:34;;;;;;;;;13.50;13.50;;;;;-142.59;100.00;56100.38;5050687;28;70814;-76
2021/10/20 04:50:59;;;;;;;;;15.00;15.00;;;;;-142.59;100.00;56100.38;5033025;28;63546;-75
2021/10/20 04:53:25;;;;;;;;;13.25;11.25;;;;;-142.59;100.00;56100.38;5051491;28;50514;-75
2021/10/20 04:55:50;;;;;;;;;16.25;13.75;;;;;-142.59;100.00;56100.38;5050822;28;68527;-76
2021/10/20 04:58:16;;;;;;;;;14.25;14.00;;;;;-142.59;100.00;56100.38;5033576;28;49952;-77
2021/10/20 05:00:41;;;;;;;;;15.00;15.00;;;;;-142.59;100.00;56100.38;5051236;28;59275;-77
2021/10/20 05:03:06;;;;;;;;;15.75;12.75;;;;;-142.59;100.00;56100.38;5050438;28;72964;-75
2021/10/20 05:05:32;;;;;;;;;9.00;9.00;;;;;-142.59;100.00;56100.38;5050532;28;66564;-70
2021/10/20 05:08:00;;;;;;;;;14.75;11.75;;;;;-142.59;100.00;56100.38;5032903;28;63726;-68
2021/10/20 05:10:26;;;;;;;;;11.75;10.75;;;;;-142.59;100.00;56100.38;5050644;28;49774;-69
2021/10/20 05:12:52;;;;;;;;;6.25;6.25;;;;;-142.59;100.00;56100.38;5051114;28;49805;-68
2021/10/20 05:15:18;;;;;;;;;13.00;13.00;;;;;-142.59;100.00;56100.38;5033397;28;49734;-69
2021/10/20 05:17:43;;;;;;;;;11.75;11.75;;;;;-142.59;100.00;56100.38;5051025;28;49764;-69
2021/10/20 05:20:10;;;;;;;;;11.50;11.50;;;;;-142.59;100.00;56100.38;5034824;28;49766;-69
2021/10/20 05:22:39;;;;;;;;;13.75;11.75;;;;;-142.59;100.00;56100.38;5018213;28;49806;-68
2021/10/20 05:25:06;;;;;;;;;11.25;11.25;;;;;-142.59;100.00;56100.38;5033663;28;49837;-64
2021/10/20 05:27:31;;;;;;;;;15.25;14.00;;;;;-142.59;100.00;56100.38;5031461;28;49820;-64
2021/10/20 05:29:59;;;;;;;;;15.00;12.00;;;;;-142.59;100.00;56100.38;5033156;28;50019;-67
2021/10/20 05:32:25;;;;;;;;;13.75;12.50;;;;;-142.59;100.00;56100.38;5050109;28;49793;-69
2021/10/20 05:34:51;;;;;;;;;15.25;12.25;;;;;-142.59;100.00;56100.38;5015488;28;49692;-66
2021/10/20 05:37:16;;;;;;;;;13.25;12.00;;;;;-142.59;100.00;56100.38;5051079;28;49578;-67
2021/10/20 05:39:42;;;;;;;;;12.50;12.50;;;;;-142.59;100.00;56100.38;5015889;28;64803;-64
2021/10/20 05:42:07;;;;;;;;;12.25;12.25;;;;;-142.59;100.00;56100.38;5050451;28;63379;-68
2021/10/20 05:44:32;;;;;;;;;11.00;11.00;;;;;-142.59;100.00;56100.38;5051048;28;49805;-74
2021/10/20 05:46:58;;;;;;;;;12.75;12.25;;;;;-142.59;100.00;56100.38;5032955;28;49680;-69
2021/10/20 05:49:23;;;;;;;;;13.25;13.25;;;;;-142.59;100.00;56100.38;5051121;28;50047;-67
2021/10/20 05:51:49;;;;;;;;;15.50;13.00;;;;;-142.59;100.00;56100.38;5050437;28;63140;-68
2021/10/20 05:54:14;;;;;;;;;19.25;13.25;;;;;-142.59;100.00;56100.38;5032041;28;72465;-66
2021/10/20 05:56:39;;;;;;;;;14.00;13.00;;;;;-142.59;100.00;56100.38;5050900;28;49751;-65
2021/10/20 05:59:05;;;;;;;;;12.00;12.00;;;;;-142.59;100.00;56100.38;5050096;28;65275;-66
2021/10/20 06:01:31;;;;;;;;;13.00;13.00;;;;;-142.59;100.00;56100.38;5050748;28;50455;-75
2021/10/20 06:03:59;;;;;;;;;13.00;12.00;;;;;-142.59;100.00;56100.38;4999765;28;49832;-76
2021/10/20 06:06:26;;;;;;;;;17.00;15.75;;;;;-142.59;100.00;56100.38;5051618;28;49667;-78
2021/10/20 06:08:52;;;;;;;;;14.75;14.75;;;;;-142.59;100.00;56100.38;5050157;28;49791;-80
2021/10/20 06:11:17;;;;;;;;;17.75;17.50;;;;;-142.59;100.00;56100.38;5014515;28;50732;-77
2021/10/20 06:13:43;;;;;;;;;15.25;15.25;;;;;-142.59;100.00;56100.38;5049062;28;49633;-73
2021/10/20 06:16:08;;;;;;;;;16.00;14.00;;;;;-142.59;100.00;56100.38;5030504;28;49746;-74
2021/10/20 06:18:34;;;;;;;;;13.50;11.75;;;;;-142.59;100.00;56100.38;5047879;28;49896;-78
2021/10/20 06:20:59;;;;;;;;;13.00;13.00;;;;;-142.59;100.00;56100.38;5048508;28;50388;-74
2021/10/20 06:23:25;;;;;;;;;18.00;15.50;;;;;-142.59;100.00;56100.38;5017794;28;49763;-79
2021/10/20 06:25:51;;;;;;;;;17.75;16.25;;;;;-142.59;100.00;56100.38;5053380;28;49769;-74
2021/10/20 06:28:16;;;;;;;;;12.50;12.50;;;;;-142.59;100.00;56100.38;5053119;28;49779;-76
2021/10/20 06:30:41;;;;;;;;;12.50;11.50;;;;;-142.59;100.00;56100.38;5034872;28;72984;-73
2021/10/20 06:33:07;;;;;;;;;17.00;14.75;;;;;-142.59;100.00;56100.38;5035392;28;49832;-78
2021/10/20 06:35:32;;;;;;;;;16.25;15.25;;;;;-142.59;100.00;56100.38;5053371;28;50229;-72
2021/10/20 06:37:57;;;;;;;;;13.75;12.50;;;;;-142.59;100.00;56100.38;5035336;28;55460;-73
2021/10/20 06:40:23;;;;;;;;;13.50;12.75;;;;;-142.59;100.00;56100.38;5052768;28;71600;-70
2021/10/20 06:42:48;;;;;;;;;12.75;12.75;;;;;-142.59;100.00;56100.38;5053685;28;50129;-79
2021/10/20 06:45:14;;;;;;;;;11.75;9.50;;;;;-142.59;100.00;56100.38;5035741;28;49773;-69
2021/10/20 06:47:39;;;;;;;;;17.00;17.00;;;;;-142.59;100.00;56100.38;5034810;28;58977;-71
2021/10/20 06:50:05;;;;;;;;;16.75;15.75;;;;;-142.59;100.00;56100.38;5018854;28;50099;-76
2021/10/20 06:52:30;;;;;;;;;17.75;15.50;;;;;-142.59;100.00;56100.38;5053678;28;49759;-76
2021/10/20 06:54:56;;;;;;;;;18.00;18.00;;;;;-142.59;100.00;56100.38;5052911;28;60445;-78
2021/10/20 06:57:21;;;;;;;;;14.00;14.00;;;;;-142.59;100.00;56100.38;5002383;28;49992;-74
2021/10/20 06:59:46;;;;;;;;;17.25;17.00;;;;;-142.59;100.00;56100.38;5034920;28;50361;-77
2021/10/20 07:02:12;;;;;;;;;18.25;17.00;;;;;-142.59;100.00;56100.38;5053336;28;50830;-73
2021/10/20 07:04:37;;;;;;;;;17.00;17.00;;;;;-142.59;100.00;56100.38;5035448;28;50384;-68
2021/10/20 07:07:05;;;;;;;;;16.75;15.75;;;;;-142.59;100.00;56100.38;5052901;28;61543;-70
2021/10/20 07:09:30;;;;;;;;;15.00;14.50;;;;;-142.59;100.00;56100.38;5053015;28;50334;-70
2021/10/20 07:11:58;;;;;;;;;15.00;14.50;;;;;-142.59;100.00;56100.38;5035113;28;49858;-70
2021/10/20 07:14:23;;;;;;;;;17.25;17.00;;;;;-142.59;100.00;56100.38;5053136;28;49646;-69
2021/10/20 07:16:48;;;;;;;;;18.50;17.50;;;;;-142.59;100.00;56100.38;5034575;28;55457;-69
2021/10/20 07:19:14;;;;;;;;;17.75;15.25;;;;;-142.59;100.00;56100.38;5017759;28;57190;-70
2021/10/20 07:21:39;;;;;;;;;18.25;17.25;;;;;-142.59;100.00;56100.38;5053101;28;49721;-70
2021/10/20 07:24:05;;;;;;;;;17.25;16.00;;;;;-142.59;100.00;56100.38;5052707;28;61323;-69
2021/10/20 07:26:30;;;;;;;;;17.75;15.50;;;;;-142.59;100.00;56100.38;5018682;28;49721;-70
2021/10/20 07:28:55;;;;;;;;;18.25;17.50;;;;;-142.59;100.00;56100.38;5052183;28;63890;-73
2021/10/20 07:31:21;;;;;;;;;18.25;18.00;;;;;-142.59;100.00;56100.38;5051977;28;67442;-69
2021/10/20 07:33:46;;;;;;;;;17.25;14.75;;;;;-142.59;100.00;56100.38;5033190;28;60682;-69
2021/10/20 07:36:11;;;;;;;;;18.75;15.75;;;;;-142.59;100.00;56100.38;5052516;28;55751;-73
2021/10/20 07:38:37;;;;;;;;;16.25;16.25;;;;;-142.59;100.00;56100.38;5051936;28;73198;-70
2021/10/20 07:41:03;;;;;;;;;14.75;13.00;;;;;-142.59;100.00;56100.38;5052672;28;68770;-69
2021/10/20 07:43:29;;;;;;;;;19.50;15.00;;;;;-142.59;100.00;56100.38;5034786;28;49635;-73
2021/10/20 07:45:55;;;;;;;;;15.50;15.50;;;;;-142.59;100.00;56100.38;5053142;28;49771;-69
2021/10/20 07:48:20;;;;;;;;;16.25;16.25;;;;;-142.59;100.00;56100.38;5034203;28;49841;-69
2021/10/20 07:50:46;;;;;;;;;17.50;14.50;;;;;-142.59;100.00;56100.38;5052633;28;49871;-69
2021/10/20 07:53:11;;;;;;;;;15.25;14.25;;;;;-142.59;100.00;56100.38;5051942;28;66582;-69
2021/10/20 07:55:37;;;;;;;;;15.50;14.25;;;;;-142.59;100.00;56100.38;5017799;28;54786;-71
2021/10/20 07:58:02;;;;;;;;;16.25;16.25;;;;;-142.59;100.00;56100.38;5052324;28;50237;-71
2021/10/20 08:00:28;;;;;;;;;17.25;15.00;;;;;-142.59;100.00;56100.38;5034302;28;49860;-70
2021/10/20 08:02:53;;;;;;;;;14.00;14.00;;;;;-142.59;100.00;56100.38;5052256;28;49671;-69
2021/10/20 08:05:19;;;;;;;;;15.25;14.75;;;;;-142.59;100.00;56100.38;5034733;28;49750;-68
2021/10/20 08:07:45;;;;;;;;;18.50;18.50;;;;;-142.59;100.00;56100.38;5052346;28;50180;-70
2021/10/20 08:10:14;;;;;;;;;11.50;11.50;;;;;-142.59;100.00;56100.38;5017781;28;49806;-69
2021/10/20 08:12:40;;;;;;;;;15.50;14.25;;;;;-142.59;100.00;56100.38;5017467;28;49640;-76
2021/10/20 08:15:07;;;;;;;;;28.00;21.00;;;;;-142.59;100.00;56100.38;5053254;28;49737;-70
2021/10/20 08:17:32;;;;;;;;;22.50;19.00;;;;;-142.59;100.00;56100.38;5052216;28;49795;-76
2021/10/20 08:19:58;;;;;;;;;15.25;15.00;;;;;-142.59;100.00;56100.38;5034446;28;49877;-69
2021/10/20 08:22:23;;;;;;;;;18.00;15.25;;;;;-142.59;100.00;56100.38;5051619;28;68556;-75
2021/10/20 08:24:48;;;;;;;;;13.25;12.00;;;;;-142.59;100.00;56100.38;5052447;28;50906;-71
2021/10/20 08:27:14;;;;;;;;;13.75;13.75;;;;;-142.59;100.00;56100.38;5051509;28;70885;-75
2021/10/20 08:29:39;;;;;;;;;20.25;18.25;;;;;-142.59;100.00;56100.38;5034170;28;49700;-72
2021/10/20 08:32:05;;;;;;;;;18.50;18.50;;;;;-142.59;100.00;56100.38;5051989;28;55904;-69
2021/10/20 08:34:31;;;;;;;;;19.25;19.25;;;;;-142.59;100.00;56100.38;5052004;28;49822;-75
2021/10/20 08:36:56;;;;;;;;;16.00;16.00;;;;;-142.59;100.00;56100.38;5051580;28;57085;-70
2021/10/20 08:39:22;;;;;;;;;17.25;17.25;;;;;-142.59;100.00;56100.38;5017403;28;49735;-73
2021/10/20 08:41:49;;;;;;;;;20.50;17.50;;;;;-142.59;100.00;56100.38;5033457;28;49601;-71
2021/10/20 08:44:14;;;;;;;;;14.25;14.25;;;;;-142.59;100.00;56100.38;5017891;28;49952;-70
2021/10/20 08:46:41;;;;;;;;;18.75;17.50;;;;;-142.59;100.00;56100.38;5033455;28;50481;-71
2021/10/20 08:49:07;;;;;;;;;19.50;17.50;;;;;-142.59;100.00;56100.38;5000617;28;49755;-69
2021/10/20 08:51:32;;;;;;;;;16.00;12.75;;;;;-142.59;100.00;56100.38;5032825;28;68089;-73
2021/10/20 08:53:58;;;;;;;;;17.75;16.50;;;;;-142.59;100.00;56100.38;5033758;28;49747;-70
2021/10/20 08:56:23;;;;;;;;;17.25;17.25;;;;;-142.59;100.00;56100.38;5033380;28;50205;-76
2021/10/20 08:58:48;;;;;;;;;18.75;18.00;;;;;-142.59;100.00;56100.38;5033973;28;50208;-81
2021/10/20 09:01:14;;;;;;;;;18.25;18.00;;;;;-142.59;100.00;56100.38;5051517;28;49661;-68
2021/10/20 09:03:39;;;;;;;;;19.75;19.00;;;;;-142.59;100.00;56100.38;5051372;28;49540;-70
2021/10/20 09:06:05;;;;;;;;;19.75;16.25;;;;;-142.59;100.00;56100.38;5050960;28;56897;-69
2021/10/20 09:08:43;;;;;;;;;16.75;16.75;;;;;-142.59;100.00;56100.38;5051390;28;49612;-73
2021/10/20 09:11:29;;;;;;;;;24.75;20.50;;;;;-142.59;100.00;56100.38;5033293;28;49801;-69
2021/10/20 09:13:58;;;;;;;;;19.25;19.25;;;;;-142.59;100.00;56100.38;5051462;28;50597;-69
2021/10/20 09:16:24;;;;;;;;;21.50;19.00;;;;;-142.59;100.00;56100.38;5050946;28;51501;-69
2021/10/20 09:18:49;;;;;;;;;18.50;18.50;;;;;-142.59;100.00;56100.38;5050584;28;49650;-69
2021/10/20 09:21:14;;;;;;;;;17.75;17.50;;;;;-142.59;100.00;56100.38;5032728;28;54185;-68
2021/10/20 09:23:40;;;;;;;;;21.25;18.25;;;;;-142.59;100.00;56100.38;5050643;28;59184;-68
2021/10/20 09:26:07;;;;;;;;;17.25;16.25;;;;;-142.59;100.00;56100.38;5051011;28;50107;-68
2021/10/20 09:28:34;;;;;;;;;18.75;18.00;;;;;-142.59;100.00;56100.38;5033138;28;49707;-68
2021/10/20 09:31:05;;;;;;;;;16.00;16.00;;;;;-142.59;100.00;56100.38;5016417;28;49793;-68
2021/10/20 09:33:36;;;;;;;;;16.25;16.25;;;;;-142.59;100.00;56100.38;5051398;28;50000;-69
2021/10/20 09:36:03;;;;;;;;;18.25;16.50;;;;;-142.59;100.00;56100.38;5050806;28;50819;-68
2021/10/20 09:38:35;;;;;;;;;16.75;16.75;;;;;-142.59;100.00;56100.38;5032834;28;49685;-68
2021/10/20 09:41:06;;;;;;;;;17.75;17.75;;;;;-142.59;100.00;56100.38;5032899;28;49877;-69
2021/10/20 09:43:31;;;;;;;;;25.00;20.25;;;;;-142.59;100.00;56100.38;5033380;28;49627;-69
2021/10/20 09:45:57;;;;;;;;;15.00;15.00;;;;;-142.59;100.00;56100.38;5050817;28;50389;-69
2021/10/20 09:48:23;;;;;;;;;20.50;18.50;;;;;-142.59;100.00;56100.38;5032706;28;49776;-70
2021/10/20 09:51:08;;;;;;;;;18.25;15.25;;;;;-142.59;100.00;56100.38;5033024;28;49781;-68
2021/10/20 09:53:41;;;;;;;;;15.50;13.75;;;;;-142.59;100.00;56100.38;5032964;28;49688;-68
2021/10/20 09:56:32;;;;;;;;;15.00;15.00;;;;;-142.59;100.00;56100.38;5050306;28;50632;-68
2021/10/20 09:58:58;;;;;;;;;18.50;17.50;;;;;-142.59;100.00;56100.38;5050762;28;49689;-68
2021/10/20 10:01:25;;;;;;;;;18.00;17.25;;;;;-142.59;100.00;56100.38;5051020;28;49922;-70
2021/10/20 10:03:51;;;;;;;;;22.25;20.25;;;;;-142.59;100.00;56100.38;5016339;28;49679;-68
2021/10/20 10:06:16;;;;;;;;;19.50;18.25;;;;;-142.59;100.00;56100.38;5032732;28;50615;-68
2021/10/20 10:08:42;;;;;;;;;17.75;17.25;;;;;-142.59;100.00;56100.38;4999745;28;49735;-69
2021/10/20 10:11:08;;;;;;;;;16.75;16.00;;;;;-142.59;100.00;56100.38;5050764;28;49626;-70
2021/10/20 10:13:35;;;;;;;;;15.25;14.25;;;;;-142.59;100.00;56100.38;5050093;28;57402;-69
2021/10/20 10:16:01;;;;;;;;;18.50;17.50;;;;;-142.59;100.00;56100.38;5050359;28;50863;-68
2021/10/20 10:18:27;;;;;;;;;14.50;14.50;;;;;-142.59;100.00;56100.38;5032184;28;49832;-70
2021/10/20 10:20:52;;;;;;;;;14.75;14.00;;;;;-142.59;100.00;56100.38;5015660;28;57662;-68
2021/10/20 10:23:25;;;;;;;;;14.50;13.00;;;;;-142.59;100.00;56100.38;5050191;28;60193;-68
2021/10/20 10:26:01;;;;;;;;;11.75;11.75;;;;;-142.59;100.00;56100.38;5016047;28;50883;-69
2021/10/20 10:28:28;;;;;;;;;14.75;14.75;;;;;-142.59;100.00;56100.38;5051044;28;49903;-68
2021/10/20 10:31:04;;;;;;;;;15.50;15.50;;;;;-142.59;100.00;56100.38;5050238;28;49830;-68
2021/10/20 10:33:33;;;;;;;;;14.25;14.25;;;;;-142.59;100.00;56100.38;5050201;28;49816;-68
2021/10/20 10:36:04;;;;;;;;;15.00;13.75;;;;;-142.59;100.00;56100.38;5050595;28;49797;-68
2021/10/20 10:38:54;;;;;;;;;5.50;5.00;;;;;-142.59;100.00;56100.38;5050523;28;49653;-68
2021/10/20 10:41:21;;;;;;;;;14.00;14.00;;;;;-142.59;100.00;56100.38;5021593;28;49872;-71
2021/10/20 10:44:07;;;;;;;;;15.50;14.00;;;;;-142.59;100.00;56100.38;5032616;28;49893;-69
2021/10/20 10:46:36;;;;;;;;;13.25;12.00;;;;;-142.59;100.00;56100.38;5027902;28;51583;-72
2021/10/20 10:49:03;;;;;;;;;12.50;12.50;;;;;-142.59;100.00;56100.38;5031564;28;49845;-71
2021/10/20 10:51:28;;;;;;;;;12.75;11.25;;;;;-142.59;100.00;56100.38;5038713;28;49627;-69